sensor_id;sensor_type;location;lat;lon;timestamp;pressure;altitude;pressure_sealevel;temperature;humidity
79791;BME280;69278;52.220;5.172;2024-01-30T00:01:27;102651.44;;;8.59;90.57
79791;BME280;69278;52.220;5.172;2024-01-30T00:03:54;102640.38;;;8.53;91.28
79791;BME280;69278;52.220;5.172;2024-01-30T00:06:20;102634.28;;;8.52;90.90
79791;BME280;69278;52.220;5.172;2024-01-30T00:08:47;102644.47;;;8.58;90.93
79791;BME280;69278;52.220;5.172;2024-01-30T00:11:15;102640.06;;;8.59;90.84
79791;BME280;69278;52.220;5.172;2024-01-30T00:13:42;102617.13;;;8.45;90.73
79791;BME280;69278;52.220;5.172;2024-01-30T00:16:08;102636.59;;;8.58;90.89
79791;BME280;69278;52.220;5.172;2024-01-30T00:18:46;102636.69;;;8.57;90.71
79791;BME280;69278;52.220;5.172;2024-01-30T00:21:12;102638.34;;;8.58;91.06
79791;BME280;69278;52.220;5.172;2024-01-30T00:23:39;102634.97;;;8.56;90.86
79791;BME280;69278;52.220;5.172;2024-01-30T00:26:05;102626.72;;;8.46;91.05
79791;BME280;69278;52.220;5.172;2024-01-30T00:28:32;102643.78;;;8.55;90.92
79791;BME280;69278;52.220;5.172;2024-01-30T00:30:59;102639.38;;;8.55;90.97
79791;BME280;69278;52.220;5.172;2024-01-30T00:33:25;102628.88;;;8.55;90.86
79791;BME280;69278;52.220;5.172;2024-01-30T00:35:52;102633.19;;;8.56;90.51
79791;BME280;69278;52.220;5.172;2024-01-30T00:38:18;102636.69;;;8.57;90.62
79791;BME280;69278;52.220;5.172;2024-01-30T00:40:45;102627.00;;;8.57;90.93
79791;BME280;69278;52.220;5.172;2024-01-30T00:43:11;102614.19;;;8.51;91.00
79791;BME280;69278;52.220;5.172;2024-01-30T00:45:38;102639.22;;;8.58;90.91
79791;BME280;69278;52.220;5.172;2024-01-30T00:48:04;102630.41;;;8.59;90.95
79791;BME280;69278;52.220;5.172;2024-01-30T00:50:31;102609.03;;;8.50;90.89
79791;BME280;69278;52.220;5.172;2024-01-30T00:52:58;102630.41;;;8.59;90.82
79791;BME280;69278;52.220;5.172;2024-01-30T00:55:24;102620.06;;;8.56;90.79
79791;BME280;69278;52.220;5.172;2024-01-30T00:57:51;102614.06;;;8.54;90.92
79791;BME280;69278;52.220;5.172;2024-01-30T01:00:17;102627.59;;;8.62;90.83
79791;BME280;69278;52.220;5.172;2024-01-30T01:02:44;102623.22;;;8.63;90.90
79791;BME280;69278;52.220;5.172;2024-01-30T01:05:11;102613.97;;;8.56;90.63
79791;BME280;69278;52.220;5.172;2024-01-30T01:07:37;102604.31;;;8.56;90.71
79791;BME280;69278;52.220;5.172;2024-01-30T01:10:04;102610.94;;;8.63;90.82
79791;BME280;69278;52.220;5.172;2024-01-30T01:12:31;102608.16;;;8.66;90.45
79791;BME280;69278;52.220;5.172;2024-01-30T01:14:57;102596.09;;;8.62;90.64
79791;BME280;69278;52.220;5.172;2024-01-30T01:17:24;102583.81;;;8.63;90.35
79791;BME280;69278;52.220;5.172;2024-01-30T01:19:51;102594.06;;;8.67;90.55
79791;BME280;69278;52.220;5.172;2024-01-30T01:22:17;102588.56;;;8.56;90.35
79791;BME280;69278;52.220;5.172;2024-01-30T01:24:44;102610.78;;;8.66;90.70
79791;BME280;69278;52.220;5.172;2024-01-30T01:27:11;102595.44;;;8.59;90.39
79791;BME280;69278;52.220;5.172;2024-01-30T01:29:38;102604.78;;;8.64;90.45
79791;BME280;69278;52.220;5.172;2024-01-30T01:32:04;102586.19;;;8.52;90.42
79791;BME280;69278;52.220;5.172;2024-01-30T01:34:31;102609.06;;;8.65;90.24
79791;BME280;69278;52.220;5.172;2024-01-30T01:36:57;102610.94;;;8.63;90.50
79791;BME280;69278;52.220;5.172;2024-01-30T01:39:24;102582.78;;;8.50;90.38
79791;BME280;69278;52.220;5.172;2024-01-30T01:41:51;102600.53;;;8.62;90.42
79791;BME280;69278;52.220;5.172;2024-01-30T01:44:18;102616.94;;;8.65;90.37
79791;BME280;69278;52.220;5.172;2024-01-30T01:46:45;102602.97;;;8.65;90.41
79791;BME280;69278;52.220;5.172;2024-01-30T01:49:12;102594.72;;;8.55;90.25
79791;BME280;69278;52.220;5.172;2024-01-30T01:51:39;102610.09;;;8.63;90.19
79791;BME280;69278;52.220;5.172;2024-01-30T01:54:08;102598.91;;;8.59;90.42
79791;BME280;69278;52.220;5.172;2024-01-30T01:56:35;102584.16;;;8.57;89.86
79791;BME280;69278;52.220;5.172;2024-01-30T01:59:06;102604.16;;;8.59;90.13
79791;BME280;69278;52.220;5.172;2024-01-30T02:01:36;102598.31;;;8.54;90.07
79791;BME280;69278;52.220;5.172;2024-01-30T02:04:04;102587.69;;;8.56;90.04
79791;BME280;69278;52.220;5.172;2024-01-30T02:06:31;102594.91;;;8.52;90.12
79791;BME280;69278;52.220;5.172;2024-01-30T02:08:58;102613.09;;;8.55;90.04
79791;BME280;69278;52.220;5.172;2024-01-30T02:11:25;102609.72;;;8.53;90.03
79791;BME280;69278;52.220;5.172;2024-01-30T02:13:52;102596.59;;;8.53;89.79
79791;BME280;69278;52.220;5.172;2024-01-30T02:16:18;102586.25;;;8.50;90.08
79791;BME280;69278;52.220;5.172;2024-01-30T02:18:45;102589.72;;;8.51;89.97
79791;BME280;69278;52.220;5.172;2024-01-30T02:21:15;102607.25;;;8.50;90.26
79791;BME280;69278;52.220;5.172;2024-01-30T02:23:43;102604.47;;;8.53;89.99
79791;BME280;69278;52.220;5.172;2024-01-30T02:26:11;102599.22;;;8.53;90.15
79791;BME280;69278;52.220;5.172;2024-01-30T02:28:38;102593.81;;;8.56;89.96
79791;BME280;69278;52.220;5.172;2024-01-30T02:31:05;102598.22;;;8.56;90.01
79791;BME280;69278;52.220;5.172;2024-01-30T02:33:31;102616.50;;;8.57;89.67
79791;BME280;69278;52.220;5.172;2024-01-30T02:35:58;102592.28;;;8.52;90.28
79791;BME280;69278;52.220;5.172;2024-01-30T02:38:24;102586.69;;;8.58;89.76
79791;BME280;69278;52.220;5.172;2024-01-30T02:40:53;102576.19;;;8.58;89.90
79791;BME280;69278;52.220;5.172;2024-01-30T02:43:19;102541.44;;;8.53;89.88
79791;BME280;69278;52.220;5.172;2024-01-30T02:45:46;102548.41;;;8.54;89.83
79791;BME280;69278;52.220;5.172;2024-01-30T02:48:13;102572.91;;;8.55;89.97
79791;BME280;69278;52.220;5.172;2024-01-30T02:50:39;102573.31;;;8.63;89.69
79791;BME280;69278;52.220;5.172;2024-01-30T02:53:06;102575.09;;;8.62;89.81
79791;BME280;69278;52.220;5.172;2024-01-30T02:55:33;102567.41;;;8.59;89.71
79791;BME280;69278;52.220;5.172;2024-01-30T02:57:59;102559.69;;;8.56;89.94
79791;BME280;69278;52.220;5.172;2024-01-30T03:00:26;102564.69;;;8.61;89.79
79791;BME280;69278;52.220;5.172;2024-01-30T03:02:52;102562.81;;;8.63;89.51
79791;BME280;69278;52.220;5.172;2024-01-30T03:05:19;102565.53;;;8.61;89.80
79791;BME280;69278;52.220;5.172;2024-01-30T03:07:45;102562.16;;;8.59;89.48
79791;BME280;69278;52.220;5.172;2024-01-30T03:10:12;102566.53;;;8.59;89.41
79791;BME280;69278;52.220;5.172;2024-01-30T03:12:39;102572.81;;;8.56;89.60
79791;BME280;69278;52.220;5.172;2024-01-30T03:15:05;102557.97;;;8.55;89.67
79791;BME280;69278;52.220;5.172;2024-01-30T03:17:32;102556.19;;;8.56;89.70
79791;BME280;69278;52.220;5.172;2024-01-30T03:19:59;102558.81;;;8.56;89.64
79791;BME280;69278;52.220;5.172;2024-01-30T03:22:25;102543.91;;;8.56;89.82
79791;BME280;69278;52.220;5.172;2024-01-30T03:24:52;102553.47;;;8.57;89.79
79791;BME280;69278;52.220;5.172;2024-01-30T03:27:19;102545.59;;;8.57;89.58
79791;BME280;69278;52.220;5.172;2024-01-30T03:29:45;102546.44;;;8.58;89.55
79791;BME280;69278;52.220;5.172;2024-01-30T03:32:12;102530.94;;;8.53;89.50
79791;BME280;69278;52.220;5.172;2024-01-30T03:34:39;102534.94;;;8.60;89.64
79791;BME280;69278;52.220;5.172;2024-01-30T03:37:06;102514.34;;;8.53;89.53
79791;BME280;69278;52.220;5.172;2024-01-30T03:39:32;102508.06;;;8.55;89.43
79791;BME280;69278;52.220;5.172;2024-01-30T03:41:59;102519.28;;;8.59;89.62
79791;BME280;69278;52.220;5.172;2024-01-30T03:44:25;102506.41;;;8.54;89.21
79791;BME280;69278;52.220;5.172;2024-01-30T03:46:52;102520.72;;;8.64;89.39
79791;BME280;69278;52.220;5.172;2024-01-30T03:49:18;102523.34;;;8.64;89.35
79791;BME280;69278;52.220;5.172;2024-01-30T03:51:45;102522.66;;;8.61;89.37
79791;BME280;69278;52.220;5.172;2024-01-30T03:54:14;102531.16;;;8.66;89.53
79791;BME280;69278;52.220;5.172;2024-01-30T03:56:40;102531.91;;;8.68;89.19
79791;BME280;69278;52.220;5.172;2024-01-30T03:59:07;102529.28;;;8.68;89.19
79791;BME280;69278;52.220;5.172;2024-01-30T04:01:33;102532.84;;;8.67;89.12
79791;BME280;69278;52.220;5.172;2024-01-30T04:04:00;102527.41;;;8.70;89.65
79791;BME280;69278;52.220;5.172;2024-01-30T04:06:27;102529.03;;;8.73;89.08
79791;BME280;69278;52.220;5.172;2024-01-30T04:08:53;102517.41;;;8.61;89.48
79791;BME280;69278;52.220;5.172;2024-01-30T04:11:20;102536.03;;;8.72;89.15
79791;BME280;69278;52.220;5.172;2024-01-30T04:13:46;102535.97;;;8.74;89.37
79791;BME280;69278;52.220;5.172;2024-01-30T04:16:21;102530.72;;;8.74;89.50
79791;BME280;69278;52.220;5.172;2024-01-30T04:18:49;102511.41;;;8.59;89.22
79791;BME280;69278;52.220;5.172;2024-01-30T04:21:15;102504.13;;;8.64;88.96
79791;BME280;69278;52.220;5.172;2024-01-30T04:23:42;102525.53;;;8.72;89.02
79791;BME280;69278;52.220;5.172;2024-01-30T04:26:09;102525.31;;;8.77;88.89
79791;BME280;69278;52.220;5.172;2024-01-30T04:28:35;102527.00;;;8.78;88.97
79791;BME280;69278;52.220;5.172;2024-01-30T04:31:02;102500.28;;;8.69;88.86
79791;BME280;69278;52.220;5.172;2024-01-30T04:33:28;102501.09;;;8.72;88.79
79791;BME280;69278;52.220;5.172;2024-01-30T04:35:55;102507.09;;;8.74;88.89
79791;BME280;69278;52.220;5.172;2024-01-30T04:38:21;102502.50;;;8.77;89.06
79791;BME280;69278;52.220;5.172;2024-01-30T04:40:48;102480.31;;;8.67;88.51
79791;BME280;69278;52.220;5.172;2024-01-30T04:43:14;102484.38;;;8.73;88.88
79791;BME280;69278;52.220;5.172;2024-01-30T04:45:42;102497.00;;;8.82;89.01
79791;BME280;69278;52.220;5.172;2024-01-30T04:48:08;102496.22;;;8.80;88.57
79791;BME280;69278;52.220;5.172;2024-01-30T04:50:35;102499.63;;;8.82;88.70
79791;BME280;69278;52.220;5.172;2024-01-30T04:53:02;102481.16;;;8.67;88.97
79791;BME280;69278;52.220;5.172;2024-01-30T04:55:29;102483.78;;;8.67;88.95
79791;BME280;69278;52.220;5.172;2024-01-30T04:57:55;102507.69;;;8.79;88.69
79791;BME280;69278;52.220;5.172;2024-01-30T05:00:22;102493.69;;;8.78;88.87
79791;BME280;69278;52.220;5.172;2024-01-30T05:02:48;102492.69;;;8.81;88.79
79791;BME280;69278;52.220;5.172;2024-01-30T05:05:15;102498.84;;;8.80;89.02
79791;BME280;69278;52.220;5.172;2024-01-30T05:07:41;102468.03;;;8.67;88.97
79791;BME280;69278;52.220;5.172;2024-01-30T05:10:08;102487.59;;;8.78;88.76
79791;BME280;69278;52.220;5.172;2024-01-30T05:12:35;102483.84;;;8.82;88.86
79791;BME280;69278;52.220;5.172;2024-01-30T05:15:01;102468.63;;;8.73;88.63
79791;BME280;69278;52.220;5.172;2024-01-30T05:17:28;102484.06;;;8.79;89.07
79791;BME280;69278;52.220;5.172;2024-01-30T05:19:54;102473.59;;;8.77;88.77
79791;BME280;69278;52.220;5.172;2024-01-30T05:22:21;102487.00;;;8.88;89.13
79791;BME280;69278;52.220;5.172;2024-01-30T05:24:47;102494.81;;;8.90;88.94
79791;BME280;69278;52.220;5.172;2024-01-30T05:27:14;102481.06;;;8.85;89.01
79791;BME280;69278;52.220;5.172;2024-01-30T05:29:41;102490.50;;;8.89;88.99
79791;BME280;69278;52.220;5.172;2024-01-30T05:32:07;102494.63;;;8.93;88.84
79791;BME280;69278;52.220;5.172;2024-01-30T05:34:33;102494.63;;;8.93;88.61
79791;BME280;69278;52.220;5.172;2024-01-30T05:37:00;102493.69;;;8.94;88.88
79791;BME280;69278;52.220;5.172;2024-01-30T05:39:27;102493.88;;;8.91;88.81
79791;BME280;69278;52.220;5.172;2024-01-30T05:41:53;102491.06;;;8.94;88.55
79791;BME280;69278;52.220;5.172;2024-01-30T05:44:20;102481.81;;;8.87;88.69
79791;BME280;69278;52.220;5.172;2024-01-30T05:46:46;102498.03;;;8.95;88.63
79791;BME280;69278;52.220;5.172;2024-01-30T05:49:13;102497.09;;;8.96;88.90
79791;BME280;69278;52.220;5.172;2024-01-30T05:51:40;102498.03;;;8.95;89.06
79791;BME280;69278;52.220;5.172;2024-01-30T05:54:06;102496.31;;;8.94;88.88
79791;BME280;69278;52.220;5.172;2024-01-30T05:56:33;102495.50;;;8.93;89.05
79791;BME280;69278;52.220;5.172;2024-01-30T05:59:00;102497.75;;;8.99;88.84
79791;BME280;69278;52.220;5.172;2024-01-30T06:01:27;102481.66;;;8.90;89.02
79791;BME280;69278;52.220;5.172;2024-01-30T06:03:53;102501.34;;;8.98;89.03
79791;BME280;69278;52.220;5.172;2024-01-30T06:06:20;102503.88;;;9.00;88.69
79791;BME280;69278;52.220;5.172;2024-01-30T06:08:46;102505.56;;;9.01;88.84
79791;BME280;69278;52.220;5.172;2024-01-30T06:11:13;102504.63;;;9.02;88.98
79791;BME280;69278;52.220;5.172;2024-01-30T06:13:39;102482.41;;;8.92;88.76
79791;BME280;69278;52.220;5.172;2024-01-30T06:16:09;102492.25;;;9.04;88.96
79791;BME280;69278;52.220;5.172;2024-01-30T06:18:38;102494.88;;;9.04;88.96
79791;BME280;69278;52.220;5.172;2024-01-30T06:21:05;102499.22;;;9.05;89.13
79791;BME280;69278;52.220;5.172;2024-01-30T06:23:33;102492.19;;;9.05;88.89
79791;BME280;69278;52.220;5.172;2024-01-30T06:26:00;102502.59;;;9.07;89.08
79791;BME280;69278;52.220;5.172;2024-01-30T06:28:26;102499.03;;;9.08;89.07
79791;BME280;69278;52.220;5.172;2024-01-30T06:30:53;102499.88;;;9.08;89.14
79791;BME280;69278;52.220;5.172;2024-01-30T06:33:19;102489.28;;;9.10;89.22
79791;BME280;69278;52.220;5.172;2024-01-30T06:35:46;102483.69;;;9.00;89.27
79791;BME280;69278;52.220;5.172;2024-01-30T06:38:12;102503.19;;;9.12;89.23
79791;BME280;69278;52.220;5.172;2024-01-30T06:40:39;102504.78;;;9.14;89.09
79791;BME280;69278;52.220;5.172;2024-01-30T06:43:06;102486.41;;;8.99;89.04
79791;BME280;69278;52.220;5.172;2024-01-30T06:45:34;102516.91;;;9.17;89.30
79791;BME280;69278;52.220;5.172;2024-01-30T06:48:01;102516.81;;;9.18;89.26
79791;BME280;69278;52.220;5.172;2024-01-30T06:50:27;102521.16;;;9.19;89.26
79791;BME280;69278;52.220;5.172;2024-01-30T06:52:54;102494.22;;;9.00;89.39
79791;BME280;69278;52.220;5.172;2024-01-30T06:55:20;102508.88;;;9.20;89.42
79791;BME280;69278;52.220;5.172;2024-01-30T06:57:47;102521.63;;;9.26;89.43
79791;BME280;69278;52.220;5.172;2024-01-30T07:00:16;102518.09;;;9.27;89.42
79791;BME280;69278;52.220;5.172;2024-01-30T07:02:45;102514.50;;;9.28;89.31
79791;BME280;69278;52.220;5.172;2024-01-30T07:05:12;102524.00;;;9.30;89.48
79791;BME280;69278;52.220;5.172;2024-01-30T07:07:39;102503.69;;;9.18;89.63
79791;BME280;69278;52.220;5.172;2024-01-30T07:10:06;102526.47;;;9.33;89.61
79791;BME280;69278;52.220;5.172;2024-01-30T07:12:33;102498.16;;;9.23;89.65
79791;BME280;69278;52.220;5.172;2024-01-30T07:15:00;102517.47;;;9.38;89.85
79791;BME280;69278;52.220;5.172;2024-01-30T07:17:27;102513.72;;;9.71;90.42
79791;BME280;69278;52.220;5.172;2024-01-30T07:19:53;102517.63;;;10.24;90.27
79791;BME280;69278;52.220;5.172;2024-01-30T07:22:20;102518.75;;;10.62;89.28
79791;BME280;69278;52.220;5.172;2024-01-30T07:24:47;102508.25;;;10.89;87.87
79791;BME280;69278;52.220;5.172;2024-01-30T07:27:15;102522.00;;;11.20;87.35
79791;BME280;69278;52.220;5.172;2024-01-30T07:29:44;102521.34;;;11.44;85.98
79791;BME280;69278;52.220;5.172;2024-01-30T07:32:10;102514.75;;;11.63;85.48
79791;BME280;69278;52.220;5.172;2024-01-30T07:34:37;102527.38;;;11.85;84.49
79791;BME280;69278;52.220;5.172;2024-01-30T07:37:18;102494.66;;;11.87;83.30
79791;BME280;69278;52.220;5.172;2024-01-30T07:39:45;102530.16;;;12.21;82.89
79791;BME280;69278;52.220;5.172;2024-01-30T07:42:12;102501.41;;;12.17;82.19
79791;BME280;69278;52.220;5.172;2024-01-30T07:44:38;102532.59;;;12.49;81.33
79791;BME280;69278;52.220;5.172;2024-01-30T07:47:05;102537.63;;;12.65;80.46
79791;BME280;69278;52.220;5.172;2024-01-30T07:49:31;102538.34;;;12.80;80.32
79791;BME280;69278;52.220;5.172;2024-01-30T07:51:58;102528.91;;;12.88;78.73
79791;BME280;69278;52.220;5.172;2024-01-30T07:54:25;102507.84;;;12.87;77.46
79791;BME280;69278;52.220;5.172;2024-01-30T07:56:51;102538.09;;;13.08;77.67
79791;BME280;69278;52.220;5.172;2024-01-30T07:59:18;102525.25;;;13.14;77.59
79791;BME280;69278;52.220;5.172;2024-01-30T08:01:45;102541.69;;;13.30;77.34
79791;BME280;69278;52.220;5.172;2024-01-30T08:04:12;102542.09;;;13.37;76.91
79791;BME280;69278;52.220;5.172;2024-01-30T08:06:39;102535.50;;;13.43;76.29
79791;BME280;69278;52.220;5.172;2024-01-30T08:09:09;102528.91;;;13.48;76.14
79791;BME280;69278;52.220;5.172;2024-01-30T08:11:35;102541.25;;;13.60;75.23
79791;BME280;69278;52.220;5.172;2024-01-30T08:14:02;102529.88;;;13.47;75.03
79791;BME280;69278;52.220;5.172;2024-01-30T08:16:28;102480.13;;;13.28;75.05
79791;BME280;69278;52.220;5.172;2024-01-30T08:18:55;102482.41;;;13.33;74.64
79791;BME280;69278;52.220;5.172;2024-01-30T08:21:24;102546.53;;;13.60;74.32
79791;BME280;69278;52.220;5.172;2024-01-30T08:23:50;102523.19;;;12.94;74.94
79791;BME280;69278;52.220;5.172;2024-01-30T08:26:17;102567.44;;;12.67;76.27
79791;BME280;69278;52.220;5.172;2024-01-30T08:28:43;102548.97;;;12.29;77.21
79791;BME280;69278;52.220;5.172;2024-01-30T08:31:10;102563.66;;;12.08;78.41
79791;BME280;69278;52.220;5.172;2024-01-30T08:33:38;102537.50;;;11.78;79.95
79791;BME280;69278;52.220;5.172;2024-01-30T08:36:07;102557.47;;;11.70;80.52
79791;BME280;69278;52.220;5.172;2024-01-30T08:38:34;102559.91;;;11.59;81.19
79791;BME280;69278;52.220;5.172;2024-01-30T08:41:00;102528.38;;;11.30;82.17
79791;BME280;69278;52.220;5.172;2024-01-30T08:43:27;102543.25;;;11.31;82.42
79791;BME280;69278;52.220;5.172;2024-01-30T08:45:53;102564.41;;;11.44;82.96
79791;BME280;69278;52.220;5.172;2024-01-30T08:48:20;102566.66;;;11.63;82.89
79791;BME280;69278;52.220;5.172;2024-01-30T08:50:47;102563.59;;;11.83;82.40
79791;BME280;69278;52.220;5.172;2024-01-30T08:53:14;102565.97;;;12.00;82.05
79791;BME280;69278;52.220;5.172;2024-01-30T08:55:41;102536.56;;;11.92;81.48
79791;BME280;69278;52.220;5.172;2024-01-30T08:58:07;102566.91;;;12.12;81.34
79791;BME280;69278;52.220;5.172;2024-01-30T09:00:34;102562.91;;;12.19;81.07
79791;BME280;69278;52.220;5.172;2024-01-30T09:03:03;102553.72;;;12.12;80.84
79791;BME280;69278;52.220;5.172;2024-01-30T09:05:30;102558.69;;;12.16;81.05
79791;BME280;69278;52.220;5.172;2024-01-30T09:07:56;102536.91;;;12.00;80.60
79791;BME280;69278;52.220;5.172;2024-01-30T09:10:23;102567.03;;;12.23;80.67
79791;BME280;69278;52.220;5.172;2024-01-30T09:12:49;102546.31;;;12.17;80.41
79791;BME280;69278;52.220;5.172;2024-01-30T09:15:16;102562.50;;;12.25;80.49
79791;BME280;69278;52.220;5.172;2024-01-30T09:17:43;102574.19;;;12.21;80.37
79791;BME280;69278;52.220;5.172;2024-01-30T09:20:09;102561.94;;;12.07;80.67
79791;BME280;69278;52.220;5.172;2024-01-30T09:22:36;102576.13;;;12.06;80.97
79791;BME280;69278;52.220;5.172;2024-01-30T09:25:04;102587.00;;;12.14;80.98
79791;BME280;69278;52.220;5.172;2024-01-30T09:27:30;102586.25;;;12.12;81.20
79791;BME280;69278;52.220;5.172;2024-01-30T09:29:57;102577.69;;;12.09;81.15
79791;BME280;69278;52.220;5.172;2024-01-30T09:32:24;102591.13;;;12.06;81.42
79791;BME280;69278;52.220;5.172;2024-01-30T09:34:50;102591.19;;;12.04;81.48
79791;BME280;69278;52.220;5.172;2024-01-30T09:37:17;102586.75;;;12.05;81.57
79791;BME280;69278;52.220;5.172;2024-01-30T09:39:44;102584.03;;;12.06;81.74
79791;BME280;69278;52.220;5.172;2024-01-30T09:44:53;102563.94;;;11.91;81.85
79791;BME280;69278;52.220;5.172;2024-01-30T09:47:19;102581.38;;;11.93;81.96
79791;BME280;69278;52.220;5.172;2024-01-30T09:49:46;102575.63;;;11.74;82.13
79791;BME280;69278;52.220;5.172;2024-01-30T09:52:14;102573.84;;;11.61;82.87
79791;BME280;69278;52.220;5.172;2024-01-30T09:54:41;102586.09;;;11.62;83.15
79791;BME280;69278;52.220;5.172;2024-01-30T09:57:08;102585.44;;;11.58;83.58
79791;BME280;69278;52.220;5.172;2024-01-30T09:59:35;102590.94;;;11.55;84.12
79791;BME280;69278;52.220;5.172;2024-01-30T10:02:02;102596.31;;;11.54;84.04
79791;BME280;69278;52.220;5.172;2024-01-30T10:04:31;102608.56;;;11.55;84.42
79791;BME280;69278;52.220;5.172;2024-01-30T10:06:57;102590.28;;;11.52;84.52
79791;BME280;69278;52.220;5.172;2024-01-30T10:09:26;102596.84;;;11.59;84.56
79791;BME280;69278;52.220;5.172;2024-01-30T10:11:52;102593.66;;;11.54;84.49
79791;BME280;69278;52.220;5.172;2024-01-30T10:14:20;102605.50;;;11.61;84.50
79791;BME280;69278;52.220;5.172;2024-01-30T10:16:47;102596.41;;;11.52;84.67
79791;BME280;69278;52.220;5.172;2024-01-30T10:19:14;102615.50;;;11.56;84.78
79791;BME280;69278;52.220;5.172;2024-01-30T10:21:40;102619.13;;;11.55;84.79
79791;BME280;69278;52.220;5.172;2024-01-30T10:24:07;102601.78;;;11.51;84.89
79791;BME280;69278;52.220;5.172;2024-01-30T10:26:33;102593.03;;;11.50;84.86
79791;BME280;69278;52.220;5.172;2024-01-30T10:29:00;102596.34;;;11.40;85.08
79791;BME280;69278;52.220;5.172;2024-01-30T10:31:27;102612.75;;;11.45;85.25
79791;BME280;69278;52.220;5.172;2024-01-30T10:33:54;102609.00;;;11.34;84.88
79791;BME280;69278;52.220;5.172;2024-01-30T10:36:40;102613.22;;;11.37;84.45
79791;BME280;69278;52.220;5.172;2024-01-30T10:39:10;102632.34;;;11.26;84.30
79791;BME280;69278;52.220;5.172;2024-01-30T10:41:43;102628.97;;;11.24;84.43
79791;BME280;69278;52.220;5.172;2024-01-30T10:44:15;102615.22;;;11.19;84.28
79791;BME280;69278;52.220;5.172;2024-01-30T10:46:51;102617.72;;;11.08;84.29
79791;BME280;69278;52.220;5.172;2024-01-30T10:49:23;102610.47;;;10.98;83.97
79791;BME280;69278;52.220;5.172;2024-01-30T10:51:52;102635.41;;;11.06;84.20
79791;BME280;69278;52.220;5.172;2024-01-30T10:54:19;102623.06;;;10.93;84.25
79791;BME280;69278;52.220;5.172;2024-01-30T10:56:47;102645.28;;;11.03;83.96
79791;BME280;69278;52.220;5.172;2024-01-30T10:59:15;102654.72;;;11.07;84.17
79791;BME280;69278;52.220;5.172;2024-01-30T11:01:42;102604.94;;;10.74;83.83
79791;BME280;69278;52.220;5.172;2024-01-30T11:04:09;102667.34;;;11.02;82.79
79791;BME280;69278;52.220;5.172;2024-01-30T11:06:42;102657.06;;;10.97;82.61
79791;BME280;69278;52.220;5.172;2024-01-30T11:09:11;102671.19;;;10.96;81.78
79791;BME280;69278;52.220;5.172;2024-01-30T11:11:55;102631.56;;;10.70;81.59
79791;BME280;69278;52.220;5.172;2024-01-30T11:14:24;102654.06;;;10.75;80.98
79791;BME280;69278;52.220;5.172;2024-01-30T11:16:57;102604.53;;;10.52;81.17
79791;BME280;69278;52.220;5.172;2024-01-30T11:19:30;102677.78;;;10.75;80.71
79791;BME280;69278;52.220;5.172;2024-01-30T11:21:57;102670.06;;;10.72;80.90
79791;BME280;69278;52.220;5.172;2024-01-30T11:24:24;102658.19;;;10.65;80.66
79791;BME280;69278;52.220;5.172;2024-01-30T11:26:58;102664.38;;;10.64;80.13
79791;BME280;69278;52.220;5.172;2024-01-30T11:29:27;102662.91;;;10.60;80.30
79791;BME280;69278;52.220;5.172;2024-01-30T11:31:55;102664.22;;;10.67;79.92
79791;BME280;69278;52.220;5.172;2024-01-30T11:34:22;102671.19;;;10.68;79.10
79791;BME280;69278;52.220;5.172;2024-01-30T11:36:56;102650.47;;;10.62;79.19
79791;BME280;69278;52.220;5.172;2024-01-30T11:39:26;102668.91;;;10.62;78.94
79791;BME280;69278;52.220;5.172;2024-01-30T11:41:53;102674.06;;;10.63;78.75
79791;BME280;69278;52.220;5.172;2024-01-30T11:44:20;102671.38;;;10.65;78.93
79791;BME280;69278;52.220;5.172;2024-01-30T11:46:51;102670.41;;;10.66;79.22
79791;BME280;69278;52.220;5.172;2024-01-30T11:49:18;102647.66;;;10.51;79.27
79791;BME280;69278;52.220;5.172;2024-01-30T11:51:45;102685.84;;;10.58;79.32
79791;BME280;69278;52.220;5.172;2024-01-30T11:54:12;102680.28;;;10.48;79.59
79791;BME280;69278;52.220;5.172;2024-01-30T11:56:38;102684.69;;;10.48;80.28
79791;BME280;69278;52.220;5.172;2024-01-30T11:59:05;102692.28;;;10.38;80.47
79791;BME280;69278;52.220;5.172;2024-01-30T12:01:31;102696.66;;;10.24;80.69
79791;BME280;69278;52.220;5.172;2024-01-30T12:03:59;102691.81;;;10.32;80.96
79791;BME280;69278;52.220;5.172;2024-01-30T12:06:26;102697.25;;;10.29;80.63
79791;BME280;69278;52.220;5.172;2024-01-30T12:09:01;102700.22;;;10.23;79.92
79791;BME280;69278;52.220;5.172;2024-01-30T12:11:30;102691.84;;;10.16;80.17
79791;BME280;69278;52.220;5.172;2024-01-30T12:13:57;102701.44;;;10.17;80.21
79791;BME280;69278;52.220;5.172;2024-01-30T12:16:23;102702.38;;;10.16;79.65
79791;BME280;69278;52.220;5.172;2024-01-30T12:18:59;102676.66;;;9.90;79.58
79791;BME280;69278;52.220;5.172;2024-01-30T12:21:26;102702.47;;;10.15;79.92
79791;BME280;69278;52.220;5.172;2024-01-30T12:23:52;102697.97;;;10.17;79.91
79791;BME280;69278;52.220;5.172;2024-01-30T12:26:19;102700.59;;;10.17;79.97
79791;BME280;69278;52.220;5.172;2024-01-30T12:28:49;102691.94;;;10.15;80.24
79791;BME280;69278;52.220;5.172;2024-01-30T12:31:16;102697.31;;;10.27;80.12
79791;BME280;69278;52.220;5.172;2024-01-30T12:33:43;102707.63;;;10.32;80.25
79791;BME280;69278;52.220;5.172;2024-01-30T12:36:11;102705.03;;;10.30;80.17
79791;BME280;69278;52.220;5.172;2024-01-30T12:38:38;102703.91;;;10.34;80.02
79791;BME280;69278;52.220;5.172;2024-01-30T12:41:07;102648.47;;;9.92;79.97
79791;BME280;69278;52.220;5.172;2024-01-30T12:43:33;102707.03;;;10.27;80.14
79791;BME280;69278;52.220;5.172;2024-01-30T12:46:05;102720.00;;;10.30;80.59
79791;BME280;69278;52.220;5.172;2024-01-30T12:48:32;102716.03;;;10.23;80.99
79791;BME280;69278;52.220;5.172;2024-01-30T12:50:59;102722.13;;;10.23;81.56
79791;BME280;69278;52.220;5.172;2024-01-30T12:53:26;102721.28;;;10.23;81.58
79791;BME280;69278;52.220;5.172;2024-01-30T12:55:53;102709.34;;;10.17;81.73
79791;BME280;69278;52.220;5.172;2024-01-30T12:58:21;102721.28;;;10.23;82.06